Terminal Aerodrome Forecast
Issued by NWS

Home | Current Version | Previous Version | Text Only | Print | Product List | Glossary On
Versions: 1 2 3 4 5 6 7 8 9 10 11 12 13 14 15 16 17 18 19 20 21 22 23 24 25 26 27 28 29 30 31 32 33 34 35 36
027
FTUS45 KBOI 211011 AAA
TAFBKE
TAF AMD
KBKE 211011Z 2110/2206 13012KT P6SM -RA BKN025 OVC035
     FM211400 13014G22KT P6SM VCSH SCT040 OVC080
     FM212000 16012G20KT P6SM -SHRA OVC040
     FM220100 32012KT P6SM VCSH BKN050=

USA.gov is the U.S. government's official web portal to all federal, state and local government web resources and services.